Time;durP1;ratioP1;P1;durP2;ratioP2;P2;SDS_P1;SDS_P2;PMS_P1;PMS_P2;Temp;Humidity;BMP_temperature;BMP_pressure;BME280_temperature;BME280_humidity;BME280_pressure;Samples;Min_cycle;Max_cycle;Signal;HPM_P1;HPM_P2
2022/01/03 00:00:14;;;;;;;3.70;1.00;;;;;;;7.87;100.00;100597.13;5041437;28;20188;-85
2022/01/03 00:02:40;;;;;;;4.13;1.00;;;;;;;8.17;100.00;100617.59;5033583;28;20522;-85
2022/01/03 00:05:06;;;;;;;5.57;1.03;;;;;;;8.11;100.00;100614.66;5036571;28;20581;-81
2022/01/03 00:07:36;;;;;;;4.47;1.30;;;;;;;7.99;100.00;100592.13;5032150;28;21113;-83
2022/01/03 00:10:03;;;;;;;2.00;0.60;;;;;;;7.71;100.00;100559.94;5039031;28;21071;-81
2022/01/03 00:12:30;;;;;;;0.97;0.60;;;;;;;8.07;100.00;100626.72;5036009;28;20431;-82
2022/01/03 00:14:56;;;;;;;5.20;0.93;;;;;;;7.78;100.00;100582.22;5034606;28;20465;-83
2022/01/03 00:17:22;;;;;;;1.90;0.67;;;;;;;7.91;100.00;100618.94;5038437;28;20443;-79
2022/01/03 00:19:47;;;;;;;3.80;1.00;;;;;;;7.68;100.00;100563.81;5043372;28;20493;-78
2022/01/03 00:22:17;;;;;;;4.60;0.80;;;;;;;8.04;100.00;100619.09;5037787;28;20227;-81
2022/01/03 00:24:48;;;;;;;2.17;0.70;;;;;;;8.03;100.00;100641.47;5027716;28;20302;-80
2022/01/03 00:27:15;;;;;;;5.00;0.90;;;;;;;8.23;100.00;100640.88;5031305;28;20445;-77
2022/01/03 00:29:44;;;;;;;5.30;0.90;;;;;;;7.94;100.00;100621.22;5032703;28;20474;-79
2022/01/03 00:32:10;;;;;;;2.53;0.83;;;;;;;7.90;100.00;100618.09;5031218;28;20437;-79
2022/01/03 00:34:37;;;;;;;1.67;0.80;;;;;;;7.11;100.00;100494.28;5036354;28;20454;-80
2022/01/03 00:37:05;;;;;;;6.90;1.13;;;;;;;7.62;100.00;100591.25;5031776;28;20444;-75
2022/01/03 00:39:31;;;;;;;2.83;0.97;;;;;;;7.37;100.00;100542.66;5029346;28;20998;-80
2022/01/03 00:41:58;;;;;;;7.40;1.53;;;;;;;7.32;100.00;100517.53;5030523;28;20439;-76
2022/01/03 00:44:24;;;;;;;3.53;1.37;;;;;;;7.48;100.00;100563.53;5029280;28;20474;-80
2022/01/03 00:46:52;;;;;;;2.60;0.97;;;;;;;7.56;100.00;100585.81;5039049;28;20902;-79
2022/01/03 00:49:17;;;;;;;8.50;1.40;;;;;;;7.78;100.00;100592.91;5031937;28;20470;-77
2022/01/03 00:51:43;;;;;;;5.40;1.30;;;;;;;7.81;100.00;100608.53;5030984;28;20602;-79
2022/01/03 00:54:08;;;;;;;4.83;1.10;;;;;;;7.65;100.00;100593.53;5033322;28;20204;-78
2022/01/03 00:56:43;;;;;;;4.20;1.00;;;;;;;7.80;100.00;100604.19;5031278;28;20187;-78
2022/01/03 00:59:16;;;;;;;7.40;1.30;;;;;;;8.25;100.00;100681.59;5031794;28;20233;-78
2022/01/03 01:01:52;;;;;;;8.90;1.60;;;;;;;8.43;100.00;100678.56;5031965;28;20757;-75
2022/01/03 01:04:20;;;;;;;9.90;1.50;;;;;;;8.16;100.00;100630.13;5026020;28;20492;-77
2022/01/03 01:06:52;;;;;;;10.70;1.73;;;;;;;7.60;100.00;100555.06;5032044;28;20489;-78
2022/01/03 01:09:19;;;;;;;11.63;2.00;;;;;;;8.15;100.00;100615.09;5031161;28;20521;-75
2022/01/03 01:11:45;;;;;;;12.17;2.30;;;;;;;8.11;100.00;100611.16;5030521;28;20505;-77
2022/01/03 01:14:12;;;;;;;10.13;2.17;;;;;;;7.97;100.00;100575.44;5028258;28;20562;-80
2022/01/03 01:16:38;;;;;;;9.27;2.00;;;;;;;8.12;100.00;100608.28;5028506;28;21044;-83
2022/01/03 01:19:05;;;;;;;7.70;1.50;;;;;;;8.76;100.00;100682.38;5034757;28;21080;-77
2022/01/03 01:21:30;;;;;;;10.67;2.10;;;;;;;8.65;100.00;100682.06;5029414;28;20815;-77
2022/01/03 01:23:57;;;;;;;13.50;3.00;;;;;;;7.72;100.00;100558.09;5031102;28;20470;-75
2022/01/03 01:29:08;;;;;;;10.50;2.37;;;;;;;8.19;100.00;100592.34;5028745;28;20530;-77
2022/01/03 01:31:36;;;;;;;11.10;2.03;;;;;;;8.75;100.00;100691.44;5028103;28;20542;-78
2022/01/03 01:34:05;;;;;;;14.17;2.20;;;;;;;8.83;100.00;100693.16;5031760;28;20204;-81
2022/01/03 01:36:30;;;;;;;7.40;1.90;;;;;;;8.33;100.00;100618.19;5034261;28;20487;-78
2022/01/03 01:39:07;;;;;;;9.63;2.40;;;;;;;8.46;100.00;100620.19;5035752;28;20906;-80
2022/01/03 01:41:37;;;;;;;10.07;3.30;;;;;;;8.92;100.00;100696.53;5033051;28;20191;-79
2022/01/03 01:44:07;;;;;;;10.40;2.30;;;;;;;8.24;100.00;100587.22;5039897;28;20986;-79
2022/01/03 01:46:34;;;;;;;20.97;2.80;;;;;;;8.95;100.00;100688.94;5041874;28;20441;-77
2022/01/03 01:49:04;;;;;;;12.00;2.73;;;;;;;8.42;100.00;100612.72;5037733;28;20457;-82
2022/01/03 01:51:34;;;;;;;15.57;2.43;;;;;;;8.78;100.00;100683.03;5039758;28;21094;-75
2022/01/03 01:54:04;;;;;;;13.33;2.63;;;;;;;8.76;100.00;100676.22;5034657;28;20588;-79
2022/01/03 01:57:08;;;;;;;15.37;3.00;;;;;;;8.85;100.00;100709.81;5039588;28;20931;-76
2022/01/03 01:59:44;;;;;;;24.43;3.33;;;;;;;8.87;100.00;100677.56;5019532;28;20446;-78
2022/01/03 02:02:14;;;;;;;16.33;3.40;;;;;;;9.00;100.00;100697.25;5041081;28;21022;-74
2022/01/03 02:05:02;;;;;;;15.30;3.53;;;;;;;9.04;100.00;100703.03;5027188;28;25158;-82
2022/01/03 02:07:59;;;;;;;11.07;2.73;;;;;;;9.05;100.00;100702.84;5028331;28;20435;-79
2022/01/03 02:10:33;;;;;;;20.00;3.40;;;;;;;8.79;100.00;100694.53;5032195;28;20472;-75
2022/01/03 02:13:00;;;;;;;19.87;3.77;;;;;;;8.77;100.00;100683.22;5029432;28;20442;-78
2022/01/03 02:15:26;;;;;;;16.27;3.17;;;;;;;8.90;100.00;100674.50;5031150;28;20466;-76
2022/01/03 02:17:51;;;;;;;17.53;2.90;;;;;;;8.90;100.00;100675.31;5022972;28;20449;-84
2022/01/03 02:20:21;;;;;;;23.37;3.83;;;;;;;9.04;100.00;100695.81;5028985;28;20195;-77
2022/01/03 02:22:47;;;;;;;17.63;3.37;;;;;;;8.98;100.00;100703.78;5026373;28;20276;-76
2022/01/03 02:25:14;;;;;;;19.17;3.50;;;;;;;8.90;100.00;100682.53;5020045;28;20486;-81
2022/01/03 02:27:41;;;;;;;12.97;3.20;;;;;;;8.97;100.00;100716.34;5027866;28;20540;-80
2022/01/03 02:30:10;;;;;;;13.53;3.30;;;;;;;8.27;100.00;100570.00;5030735;28;20474;-76
2022/01/03 02:32:36;;;;;;;18.63;3.63;;;;;;;8.88;100.00;100668.50;5026268;28;20529;-76
2022/01/03 02:35:03;;;;;;;19.43;3.40;;;;;;;8.55;100.00;100628.91;5018016;28;20458;-76
2022/01/03 02:37:28;;;;;;;13.20;3.10;;;;;;;8.88;100.00;100724.66;5029440;28;20188;-73
2022/01/03 02:39:54;;;;;;;17.23;3.90;;;;;;;9.02;100.00;100703.22;5028866;28;20442;-77
2022/01/03 02:42:23;;;;;;;16.13;3.60;;;;;;;8.98;100.00;100712.66;5024206;28;20211;-82
2022/01/03 02:44:58;;;;;;;17.97;3.73;;;;;;;9.07;100.00;100710.66;5015246;28;20701;-77
2022/01/03 02:47:23;;;;;;;15.70;3.07;;;;;;;8.47;100.00;100607.66;5026479;28;20580;-76
2022/01/03 02:49:49;;;;;;;16.00;3.70;;;;;;;7.65;100.00;100480.59;5029170;28;20474;-79
2022/01/03 02:52:14;;;;;;;12.23;2.90;;;;;;;8.89;100.00;100673.69;5030699;28;20191;-77
2022/01/03 02:54:39;;;;;;;16.27;3.60;;;;;;;8.72;100.00;100664.25;5026159;28;21006;-80
2022/01/03 02:57:05;;;;;;;14.60;3.13;;;;;;;8.76;100.00;100639.59;5032573;28;20184;-78
2022/01/03 02:59:30;;;;;;;18.97;3.23;;;;;;;8.96;100.00;100671.88;5033836;28;20188;-77
2022/01/03 03:01:56;;;;;;;15.50;3.63;;;;;;;8.37;100.00;100581.22;5028789;28;20253;-77
2022/01/03 03:04:21;;;;;;;15.80;3.57;;;;;;;8.92;100.00;100651.88;5027613;28;20303;-79
2022/01/03 03:06:47;;;;;;;20.87;4.13;;;;;;;8.53;100.00;100596.19;5028426;28;20203;-76
2022/01/03 03:09:13;;;;;;;14.93;3.30;;;;;;;7.88;100.00;100502.63;5027290;28;20226;-78
2022/01/03 03:11:38;;;;;;;18.90;4.47;;;;;;;8.76;100.00;100630.75;5024668;28;20262;-78
2022/01/03 03:14:04;;;;;;;19.03;3.87;;;;;;;8.40;100.00;100570.16;5027531;28;20458;-77
2022/01/03 03:16:29;;;;;;;19.40;3.83;;;;;;;8.66;100.00;100617.72;5033278;28;20227;-74
2022/01/03 03:18:55;;;;;;;18.97;4.07;;;;;;;8.87;100.00;100662.31;5028621;28;20276;-77
2022/01/03 03:21:20;;;;;;;15.63;3.73;;;;;;;8.83;100.00;100661.91;5021834;28;20188;-88
2022/01/03 03:23:46;;;;;;;25.70;3.53;;;;;;;8.86;100.00;100651.84;5023517;28;20215;-77
2022/01/03 03:26:12;;;;;;;15.77;3.03;;;;;;;8.58;100.00;100599.13;5028704;28;20604;-78
2022/01/03 03:28:38;;;;;;;22.47;4.50;;;;;;;8.34;100.00;100562.88;5024023;28;20310;-80
2022/01/03 03:31:04;;;;;;;24.67;4.07;;;;;;;8.77;100.00;100649.28;5022521;28;20475;-79
2022/01/03 03:33:31;;;;;;;23.00;4.60;;;;;;;9.16;100.00;100711.38;5026207;28;20202;-75
2022/01/03 03:35:57;;;;;;;15.77;3.40;;;;;;;8.37;100.00;100587.38;5026830;28;20444;-76
2022/01/03 03:38:23;;;;;;;17.20;3.90;;;;;;;9.04;100.00;100708.38;5028808;28;20504;-78
2022/01/03 03:40:49;;;;;;;15.30;3.60;;;;;;;8.92;100.00;100686.66;5016873;28;20442;-78
2022/01/03 03:43:15;;;;;;;29.93;4.63;;;;;;;9.13;100.00;100712.56;5031933;28;20623;-78
2022/01/03 03:45:41;;;;;;;22.97;4.83;;;;;;;8.83;100.00;100655.72;5028913;28;20488;-73
2022/01/03 03:48:07;;;;;;;16.13;4.50;;;;;;;8.38;100.00;100574.84;5026809;28;20932;-80
2022/01/03 03:50:32;;;;;;;24.63;3.77;;;;;;;8.45;100.00;100609.69;5017317;28;20204;-78
2022/01/03 03:52:57;;;;;;;20.97;5.10;;;;;;;8.46;100.00;100604.16;5025191;28;20634;-78
2022/01/03 03:55:23;;;;;;;24.20;4.93;;;;;;;8.53;100.00;100604.22;5031567;28;20283;-77
2022/01/03 03:57:49;;;;;;;18.30;3.83;;;;;;;8.25;100.00;100572.06;5022292;28;20191;-79
2022/01/03 04:00:17;;;;;;;20.67;4.20;;;;;;;8.31;100.00;100606.03;5027482;28;20188;-78
2022/01/03 04:02:43;;;;;;;20.87;3.77;;;;;;;8.09;100.00;100555.22;5022051;28;20536;-77
2022/01/03 04:05:08;;;;;;;14.60;3.77;;;;;;;9.05;100.00;100710.88;5028345;28;20469;-79
2022/01/03 04:07:35;;;;;;;19.07;4.20;;;;;;;8.85;100.00;100682.25;5028771;28;20215;-76
2022/01/03 04:10:02;;;;;;;15.30;3.57;;;;;;;8.28;100.00;100575.16;5029077;28;20625;-77
2022/01/03 04:12:28;;;;;;;19.63;5.10;;;;;;;8.62;100.00;100640.50;5034031;28;20438;-76
2022/01/03 04:14:53;;;;;;;18.63;4.63;;;;;;;8.52;100.00;100632.78;5032601;28;20458;-78
2022/01/03 04:17:18;;;;;;;15.70;4.40;;;;;;;8.60;100.00;100643.38;5031513;28;20195;-76
2022/01/03 04:19:44;;;;;;;18.73;4.37;;;;;;;8.22;100.00;100578.59;5036657;28;20195;-77
2022/01/03 04:22:09;;;;;;;22.33;4.67;;;;;;;8.13;100.00;100579.75;5031507;28;20183;-77
2022/01/03 04:24:35;;;;;;;17.23;3.90;;;;;;;8.88;100.00;100688.06;5030806;28;20212;-76
2022/01/03 04:27:01;;;;;;;16.47;3.70;;;;;;;8.33;100.00;100607.50;5028867;28;20681;-74
2022/01/03 04:29:26;;;;;;;18.20;3.53;;;;;;;8.36;100.00;100604.44;5031757;28;20516;-75
2022/01/03 04:31:52;;;;;;;22.90;5.00;;;;;;;8.87;100.00;100683.72;5032419;28;20195;-75
2022/01/03 04:34:17;;;;;;;29.23;6.53;;;;;;;8.16;100.00;100582.03;5032885;28;20235;-75
2022/01/03 04:36:43;;;;;;;19.57;5.17;;;;;;;8.12;100.00;100584.22;5033013;28;21138;-79
2022/01/03 04:39:08;;;;;;;26.37;5.20;;;;;;;8.81;100.00;100679.97;5032065;28;20314;-76
2022/01/03 04:41:34;;;;;;;18.97;4.77;;;;;;;8.24;100.00;100591.75;5030430;28;20195;-76
2022/01/03 04:44:00;;;;;;;22.70;4.90;;;;;;;8.46;100.00;100640.75;5033329;28;20216;-78
2022/01/03 04:46:26;;;;;;;19.57;4.20;;;;;;;8.49;100.00;100640.38;5036710;28;20183;-80
2022/01/03 04:48:51;;;;;;;14.70;4.00;;;;;;;8.15;100.00;100573.16;5029452;28;20664;-79
2022/01/03 04:51:17;;;;;;;24.30;4.90;;;;;;;8.09;100.00;100575.78;5034206;28;20475;-75
2022/01/03 04:53:43;;;;;;;22.53;4.97;;;;;;;8.04;100.00;100568.34;5030406;28;20215;-75
2022/01/03 04:56:10;;;;;;;19.63;4.17;;;;;;;8.77;100.00;100678.72;5027692;28;20184;-77
2022/01/03 04:58:37;;;;;;;32.40;4.80;;;;;;;8.38;100.00;100625.63;5036806;28;20188;-76
2022/01/03 05:01:03;;;;;;;31.70;4.53;;;;;;;8.63;100.00;100657.38;5033205;28;20439;-74
2022/01/03 05:03:28;;;;;;;13.90;4.73;;;;;;;8.57;100.00;100658.97;5029974;28;20438;-80
2022/01/03 05:05:54;;;;;;;20.77;4.70;;;;;;;8.37;100.00;100664.06;5036233;28;20434;-74
2022/01/03 05:08:19;;;;;;;26.27;5.27;;;;;;;8.57;100.00;100677.69;5033471;28;20185;-78
2022/01/03 05:10:44;;;;;;;24.50;4.67;;;;;;;7.92;100.00;100589.34;5033267;28;20223;-76
2022/01/03 05:13:10;;;;;;;17.80;3.97;;;;;;;8.49;100.00;100632.34;5026328;28;20192;-84
2022/01/03 05:15:35;;;;;;;26.63;5.07;;;;;;;8.13;100.00;100585.91;5026555;28;20307;-79
2022/01/03 05:18:00;;;;;;;30.30;5.50;;;;;;;8.83;100.00;100694.00;5028881;28;20762;-76
2022/01/03 05:20:26;;;;;;;28.30;4.13;;;;;;;8.24;100.00;100584.56;5017496;28;20722;-77
2022/01/03 05:22:51;;;;;;;25.27;4.30;;;;;;;8.89;100.00;100686.22;5020225;28;20188;-78
2022/01/03 05:25:17;;;;;;;31.13;4.83;;;;;;;8.67;100.00;100655.97;5009918;28;20219;-80
2022/01/03 05:27:42;;;;;;;20.30;4.67;;;;;;;8.10;100.00;100553.38;5014031;28;20878;-78
2022/01/03 05:30:09;;;;;;;25.10;5.07;;;;;;;8.87;100.00;100693.59;5018043;28;20204;-78
2022/01/03 05:32:34;;;;;;;23.50;5.60;;;;;;;8.67;100.00;100632.72;5031277;28;20188;-77
2022/01/03 05:35:00;;;;;;;25.93;4.37;;;;;;;8.83;100.00;100680.63;5036749;28;20520;-73
2022/01/03 05:37:25;;;;;;;19.37;4.33;;;;;;;8.49;100.00;100643.88;5037256;28;20636;-76
2022/01/03 05:39:51;;;;;;;23.07;4.37;;;;;;;8.79;100.00;100681.19;5035304;28;20195;-78
2022/01/03 05:42:16;;;;;;;19.70;4.70;;;;;;;8.35;100.00;100610.78;5029939;28;20203;-81
2022/01/03 05:44:41;;;;;;;33.53;6.20;;;;;;;8.59;100.00;100651.56;5034248;28;20239;-81
2022/01/03 05:47:07;;;;;;;24.10;5.07;;;;;;;8.12;100.00;100556.69;5043609;28;20771;-76
2022/01/03 05:49:32;;;;;;;25.13;6.07;;;;;;;8.52;100.00;100638.13;5035798;28;20227;-77
2022/01/03 05:51:58;;;;;;;26.40;5.10;;;;;;;8.94;100.00;100689.13;5031311;28;20675;-77
2022/01/03 05:54:23;;;;;;;26.80;5.83;;;;;;;8.11;100.00;100565.75;5033619;28;20211;-78
2022/01/03 05:56:49;;;;;;;18.83;4.60;;;;;;;8.93;100.00;100688.31;5035605;28;20187;-78
2022/01/03 05:59:14;;;;;;;23.97;5.10;;;;;;;8.72;100.00;100665.06;5033479;28;20275;-81
2022/01/03 06:01:41;;;;;;;21.93;5.40;;;;;;;8.28;100.00;100585.84;5034846;28;20191;-78
2022/01/03 06:04:24;;;;;;;20.20;4.70;;;;;;;8.23;100.00;100553.53;5033543;28;20231;-80
2022/01/03 06:07:02;;;;;;;20.10;5.00;;;;;;;8.95;100.00;100685.47;5017455;28;20439;-76
2022/01/03 06:09:27;;;;;;;25.80;5.13;;;;;;;8.48;100.00;100599.44;5018948;28;20441;-76
2022/01/03 06:11:54;;;;;;;25.13;5.57;;;;;;;8.42;100.00;100586.84;5016727;28;20828;-76
2022/01/03 06:14:20;;;;;;;34.23;5.10;;;;;;;9.00;100.00;100675.00;5011315;28;20211;-79
2022/01/03 06:16:47;;;;;;;25.73;4.83;;;;;;;8.81;100.00;100655.91;5014411;28;21192;-78
2022/01/03 06:19:14;;;;;;;25.13;5.07;;;;;;;8.98;100.00;100682.41;5013729;28;20446;-76
2022/01/03 06:21:41;;;;;;;29.10;5.50;;;;;;;8.05;100.00;100545.94;4991481;28;21863;-77
2022/01/03 06:24:09;;;;;;;23.60;5.40;;;;;;;8.35;100.00;100593.94;5003267;28;20892;-81
2022/01/03 06:26:36;;;;;;;24.27;5.33;;;;;;;8.85;100.00;100676.91;5016029;28;20438;-78
2022/01/03 06:29:03;;;;;;;34.00;5.17;;;;;;;8.82;100.00;100683.47;5018756;28;20446;-77
2022/01/03 06:31:28;;;;;;;30.43;6.30;;;;;;;8.68;100.00;100641.56;5011438;28;20558;-79
2022/01/03 06:33:54;;;;;;;20.77;5.10;;;;;;;8.91;100.00;100665.44;5007228;28;21005;-74
2022/01/03 06:36:19;;;;;;;24.93;5.67;;;;;;;7.90;100.00;100510.47;5011832;28;20190;-75
2022/01/03 06:38:45;;;;;;;26.57;5.57;;;;;;;7.98;100.00;100506.81;5036481;28;20199;-77
2022/01/03 06:41:10;;;;;;;30.57;5.63;;;;;;;8.99;100.00;100679.50;5027481;28;20224;-74
2022/01/03 06:43:36;;;;;;;29.50;5.83;;;;;;;8.99;100.00;100681.38;5032905;28;20214;-76
2022/01/03 06:46:02;;;;;;;26.20;6.10;;;;;;;9.05;100.00;100656.50;5021528;28;20675;-76
2022/01/03 06:48:27;;;;;;;21.07;4.47;;;;;;;8.93;100.00;100650.84;5033201;28;20188;-75
2022/01/03 06:50:53;;;;;;;23.00;5.40;;;;;;;8.83;100.00;100651.19;5022639;28;20521;-78
2022/01/03 06:53:19;;;;;;;24.77;5.20;;;;;;;8.20;100.00;100537.88;5023702;28;20188;-73
2022/01/03 06:55:44;;;;;;;16.50;4.63;;;;;;;9.00;100.00;100665.13;5029208;28;20191;-76
2022/01/03 06:58:09;;;;;;;22.53;5.67;;;;;;;8.88;100.00;100625.72;5033275;28;20192;-75
2022/01/03 07:00:35;;;;;;;18.80;4.87;;;;;;;8.03;100.00;100520.44;5033414;28;20593;-74
2022/01/03 07:03:00;;;;;;;26.50;6.00;;;;;;;8.82;100.00;100648.69;5029569;28;20680;-80
2022/01/03 07:05:26;;;;;;;27.93;5.60;;;;;;;8.03;100.00;100515.09;5022687;28;20230;-74
2022/01/03 07:07:51;;;;;;;25.90;5.07;;;;;;;8.96;100.00;100663.84;5031664;28;20188;-74
2022/01/03 07:10:19;;;;;;;23.17;4.20;;;;;;;8.11;100.00;100531.00;5031069;28;20718;-78
2022/01/03 07:12:44;;;;;;;21.93;5.30;;;;;;;8.74;100.00;100641.66;5028911;28;20679;-81
2022/01/03 07:20:39;;;;;;;24.80;4.80;;;;;;;8.80;100.00;100658.78;5029366;28;20465;-80
2022/01/03 07:23:05;;;;;;;31.47;6.63;;;;;;;8.58;100.00;100618.66;5028700;28;20443;-74
2022/01/03 07:25:30;;;;;;;28.53;5.40;;;;;;;8.36;100.00;100560.84;5029391;28;20477;-80
2022/01/03 07:27:55;;;;;;;23.00;5.57;;;;;;;8.83;100.00;100664.56;5034320;28;20191;-75
2022/01/03 07:30:21;;;;;;;31.20;6.93;;;;;;;8.80;100.00;100664.13;5026671;28;25719;-74
2022/01/03 07:32:46;;;;;;;33.27;5.93;;;;;;;8.65;100.00;100623.22;5028816;28;20195;-78
2022/01/03 07:35:15;;;;;;;29.57;5.90;;;;;;;8.87;100.00;100675.69;5028241;28;20210;-78
2022/01/03 07:37:41;;;;;;;28.17;5.07;;;;;;;8.85;100.00;100659.00;5018127;28;23193;-78
2022/01/03 07:40:07;;;;;;;22.57;5.17;;;;;;;7.80;100.00;100492.06;5020393;28;20450;-75
2022/01/03 07:42:32;;;;;;;22.67;4.43;;;;;;;8.67;100.00;100614.00;5026799;28;20215;-76
2022/01/03 07:44:58;;;;;;;30.03;5.50;;;;;;;8.57;100.00;100624.22;5028654;28;20216;-76
2022/01/03 07:47:23;;;;;;;28.10;4.97;;;;;;;8.78;100.00;100664.31;5024460;28;20283;-74
2022/01/03 07:49:48;;;;;;;32.37;6.77;;;;;;;8.58;100.00;100649.91;5024336;28;20221;-86
2022/01/03 07:52:14;;;;;;;23.87;5.40;;;;;;;7.83;100.00;100513.03;5030378;28;20189;-77
2022/01/03 07:54:39;;;;;;;23.77;5.13;;;;;;;8.27;100.00;100581.50;5024476;28;20248;-77
2022/01/03 07:57:05;;;;;;;28.63;4.77;;;;;;;8.27;100.00;100592.19;5021851;28;20192;-75
2022/01/03 07:59:30;;;;;;;29.87;6.17;;;;;;;8.44;100.00;100610.69;5005013;28;20184;-79
2022/01/03 08:01:56;;;;;;;24.43;5.13;;;;;;;8.22;100.00;100594.63;5026254;28;20191;-74
2022/01/03 08:04:21;;;;;;;27.80;5.00;;;;;;;8.11;100.00;100561.22;5021751;28;20641;-76
2022/01/03 08:06:46;;;;;;;27.97;5.90;;;;;;;8.23;100.00;100585.59;5025855;28;20196;-74
2022/01/03 08:09:12;;;;;;;20.73;4.77;;;;;;;8.79;100.00;100659.78;5025832;28;20279;-75
2022/01/03 08:11:37;;;;;;;19.53;5.13;;;;;;;8.69;100.00;100648.59;5024743;28;20734;-76
2022/01/03 08:14:03;;;;;;;29.57;4.97;;;;;;;8.86;100.00;100678.59;5030227;28;20210;-74
2022/01/03 08:16:28;;;;;;;28.30;4.80;;;;;;;7.89;100.00;100541.66;5021724;28;20192;-76
2022/01/03 08:18:54;;;;;;;23.10;5.27;;;;;;;8.90;100.00;100710.09;5029439;28;20641;-74
2022/01/03 08:21:19;;;;;;;32.00;5.50;;;;;;;7.31;100.00;100458.03;5028991;28;20196;-71
2022/01/03 08:23:45;;;;;;;28.43;4.90;;;;;;;8.57;100.00;100632.22;5024666;28;20787;-76
2022/01/03 08:26:10;;;;;;;22.33;4.60;;;;;;;7.80;100.00;100505.41;5025751;28;20187;-75
2022/01/03 08:28:35;;;;;;;28.53;5.47;;;;;;;8.83;100.00;100677.94;5025952;28;20194;-76
2022/01/03 08:31:01;;;;;;;30.97;6.20;;;;;;;8.63;100.00;100652.03;5024659;28;20204;-74
2022/01/03 08:33:26;;;;;;;22.70;5.40;;;;;;;7.99;100.00;100554.72;5019766;28;20263;-77
2022/01/03 08:35:52;;;;;;;29.47;5.27;;;;;;;8.22;100.00;100583.94;5027470;28;20194;-73
2022/01/03 08:38:17;;;;;;;28.40;5.60;;;;;;;8.44;100.00;100608.03;5022559;28;20678;-74
2022/01/03 08:40:43;;;;;;;24.73;4.77;;;;;;;8.17;100.00;100550.78;5017732;28;20230;-76
2022/01/03 08:43:08;;;;;;;24.70;5.63;;;;;;;8.87;100.00;100666.84;5028610;28;20195;-75
2022/01/03 08:45:34;;;;;;;29.10;6.27;;;;;;;8.60;100.00;100621.16;5019868;28;20211;-76
2022/01/03 08:48:00;;;;;;;32.93;5.30;;;;;;;8.23;100.00;100593.59;5025480;28;20184;-78
2022/01/03 08:50:25;;;;;;;27.37;5.70;;;;;;;8.08;100.00;100574.13;5021643;28;20482;-78
2022/01/03 08:52:51;;;;;;;20.83;5.23;;;;;;;9.01;100.00;100695.38;5030924;28;20185;-78
2022/01/03 08:55:16;;;;;;;27.97;5.00;;;;;;;8.46;100.00;100584.63;5028835;28;20494;-79
2022/01/03 08:57:43;;;;;;;27.70;5.47;;;;;;;8.48;100.00;100598.63;5034522;28;21404;-80
2022/01/03 09:00:10;;;;;;;27.60;4.90;;;;;;;8.54;100.00;100612.03;5012381;28;20180;-78
2022/01/03 09:02:36;;;;;;;23.47;6.10;;;;;;;7.68;100.00;100493.56;5033237;28;20926;-76
2022/01/03 09:05:02;;;;;;;29.40;4.83;;;;;;;8.42;100.00;100604.72;5020302;28;21137;-77
2022/01/03 09:07:27;;;;;;;31.63;4.83;;;;;;;8.72;100.00;100621.47;5029559;28;20188;-77
2022/01/03 09:09:52;;;;;;;27.97;5.80;;;;;;;8.65;100.00;100609.88;5029441;28;20238;-75
2022/01/03 09:12:18;;;;;;;21.40;4.93;;;;;;;8.73;100.00;100623.09;5026482;28;20183;-76
2022/01/03 09:14:43;;;;;;;20.90;5.77;;;;;;;8.58;100.00;100604.47;5026598;28;20580;-75
2022/01/03 09:17:09;;;;;;;25.10;5.10;;;;;;;9.08;100.00;100692.75;5027893;28;20275;-75
2022/01/03 09:19:35;;;;;;;18.43;4.50;;;;;;;8.56;100.00;100588.63;5026014;28;20198;-75
2022/01/03 09:22:19;;;;;;;28.23;4.00;;;;;;;9.01;100.00;100657.94;5022770;28;20919;-78
2022/01/03 09:28:48;;;;;;;25.13;5.27;;;;;;;8.81;100.00;100634.50;5023878;28;20581;-76
2022/01/03 09:30:17;;;;;;;23.47;5.77;;;;;;;8.70;100.00;100594.91;5012191;28;20611;-75
2022/01/03 09:32:43;;;;;;;23.60;4.80;;;;;;;8.91;100.00;100646.72;5028419;28;20457;-76
2022/01/03 09:35:09;;;;;;;21.60;4.87;;;;;;;9.01;100.00;100642.69;5025159;28;20242;-76
2022/01/03 09:37:36;;;;;;;25.10;4.90;;;;;;;9.31;100.00;100684.50;5023269;28;20520;-74
2022/01/03 09:40:04;;;;;;;21.90;4.83;;;;;;;8.85;100.00;100631.44;5020181;28;20841;-76
2022/01/03 09:42:31;;;;;;;34.37;4.80;;;;;;;7.42;100.00;100416.69;5018123;28;20437;-82
2022/01/03 09:45:01;;;;;;;16.77;4.13;;;;;;;9.41;100.00;100695.72;5024287;28;20565;-77
2022/01/03 09:47:29;;;;;;;23.47;5.30;;;;;;;9.27;100.00;100708.16;5028722;28;20561;-76
2022/01/03 09:49:56;;;;;;;25.90;4.83;;;;;;;8.82;100.00;100609.44;5021991;28;20465;-76
2022/01/03 09:52:23;;;;;;;23.40;5.20;;;;;;;9.40;100.00;100684.19;5018658;28;20537;-75
2022/01/03 09:54:49;;;;;;;30.37;5.77;;;;;;;8.71;100.00;100577.03;5021140;28;20523;-75
2022/01/03 09:57:17;;;;;;;26.57;4.00;;;;;;;8.54;100.00;100547.88;5014108;28;20439;-78
2022/01/03 09:59:43;;;;;;;22.60;4.60;;;;;;;7.57;100.00;100406.78;5015241;28;21018;-74
2022/01/03 10:02:10;;;;;;;26.13;4.93;;;;;;;8.58;100.00;100567.88;5023322;28;20439;-75
2022/01/03 10:04:36;;;;;;;30.97;5.90;;;;;;;9.28;100.00;100649.06;5030646;28;20473;-76
2022/01/03 10:07:02;;;;;;;21.77;4.50;;;;;;;8.56;100.00;100559.22;5023433;28;20446;-74
2022/01/03 10:09:28;;;;;;;21.47;5.20;;;;;;;8.71;100.00;100555.66;5025798;28;20287;-75
2022/01/03 10:11:53;;;;;;;22.17;5.00;;;;;;;8.82;100.00;100585.38;5027155;28;20208;-77
2022/01/03 10:14:19;;;;;;;22.33;4.47;;;;;;;8.64;100.00;100568.94;5033154;28;20511;-74
2022/01/03 10:16:46;;;;;;;19.33;4.60;;;;;;;8.63;100.00;100537.88;5031251;28;20242;-74
2022/01/03 10:19:12;;;;;;;16.13;4.17;;;;;;;8.84;100.00;100577.13;5029610;28;20203;-75
2022/01/03 10:21:42;;;;;;;18.20;4.33;;;;;;;9.41;100.00;100666.28;5025190;28;20438;-74
2022/01/03 10:24:08;;;;;;;16.60;3.50;;;;;;;8.60;100.00;100525.72;5031563;28;20466;-75
2022/01/03 10:26:37;;;;;;;18.90;4.60;;;;;;;8.88;100.00;100583.75;5028842;28;20442;-74
2022/01/03 10:29:17;;;;;;;22.07;5.03;;;;;;;9.47;100.00;100671.66;5021864;28;20481;-78
2022/01/03 10:31:46;;;;;;;26.20;4.37;;;;;;;9.54;100.00;100669.03;5018358;28;20474;-78
2022/01/03 10:34:15;;;;;;;18.17;5.03;;;;;;;9.43;100.00;100637.44;5027967;28;20471;-81
2022/01/03 10:36:45;;;;;;;23.60;4.60;;;;;;;9.46;100.00;100656.63;5028752;28;20442;-76
2022/01/03 10:39:32;;;;;;;23.50;4.90;;;;;;;9.55;100.00;100659.16;5026520;28;20430;-75
2022/01/03 10:42:20;;;;;;;27.10;4.83;;;;;;;9.44;100.00;100660.53;5028925;28;20439;-74
2022/01/03 10:44:47;;;;;;;16.80;4.00;;;;;;;9.57;100.00;100657.09;5024364;28;21012;-75
2022/01/03 10:47:16;;;;;;;28.17;5.30;;;;;;;9.37;100.00;100640.91;5017661;28;20441;-76
2022/01/03 10:49:44;;;;;;;22.67;5.17;;;;;;;9.35;100.00;100645.66;5021317;28;21355;-74
2022/01/03 10:52:15;;;;;;;21.80;4.70;;;;;;;9.00;100.00;100584.06;5017090;28;20481;-75
2022/01/03 10:54:42;;;;;;;22.77;4.63;;;;;;;8.77;100.00;100534.28;5026857;28;20519;-77
2022/01/03 10:57:07;;;;;;;25.00;5.00;;;;;;;9.26;100.00;100588.75;5017827;28;21116;-72
2022/01/03 10:59:35;;;;;;;18.60;4.27;;;;;;;9.19;100.00;100596.72;5029757;28;20441;-75
2022/01/03 11:02:04;;;;;;;17.97;3.77;;;;;;;9.20;100.00;100597.53;5026581;28;20176;-78
2022/01/03 11:04:46;;;;;;;18.47;4.30;;;;;;;8.97;100.00;100563.88;5030261;28;20495;-74
2022/01/03 11:13:14;;;;;;;28.23;5.90;;;;;;;9.59;100.00;100629.09;5024056;28;20991;-77
2022/01/03 11:15:54;;;;;;;21.73;4.50;;;;;;;9.60;100.00;100622.72;5026369;28;21104;-74
2022/01/03 11:18:25;;;;;;;25.57;4.03;;;;;;;9.63;100.00;100595.56;5026460;28;21057;-74
2022/01/03 11:21:13;;;;;;;19.57;4.63;;;;;;;9.74;100.00;100608.38;5029118;28;20672;-84
2022/01/03 11:23:40;;;;;;;21.77;4.50;;;;;;;9.78;100.00;100613.31;5029626;28;21860;-75
2022/01/03 11:26:12;;;;;;;19.43;3.90;;;;;;;9.39;100.00;100529.13;5028832;28;20534;-75
2022/01/03 11:28:39;;;;;;;20.57;4.37;;;;;;;9.26;100.00;100517.31;5026026;28;20935;-79
2022/01/03 11:31:07;;;;;;;26.90;5.07;;;;;;;9.77;100.00;100622.41;5028586;28;21810;-86
2022/01/03 11:33:35;;;;;;;22.17;5.83;;;;;;;9.10;100.00;100501.59;5031041;28;20875;-75